Terminal Aerodrome Forecast
Issued by NWS

Home | Current Version | Previous Version | Graphics & Text | Print | Product List | Glossary On
Versions: 1 2 3 4 5 6 7 8 9 10 11 12 13 14 15 16 17 18 19
000
FTUS43 KTOP 242300
TAFFOE
TAF
KFOE 242320Z 2500/2524 12011KT P6SM SCT025 BKN035
     FM250300 17014G20KT 6SM BR VCTS BKN023CB OVC030
      TEMPO 2504/2508 18015G25KT 1SM TSRA OVC020CB
     FM250800 25010G18KT 5SM -RA VCTS OVC015CB
     FM251500 33015G24KT P6SM SCT020 BKN035=

USA.gov is the U.S. government's official web portal to all federal, state and local government web resources and services.